Time;durP1;ratioP1;P1;durP2;ratioP2;P2;SDS_P1;SDS_P2;PMS_P1;PMS_P2;Temp;Humidity;BMP_temperature;BMP_pressure;BME280_temperature;BME280_humidity;BME280_pressure;Samples;Min_cycle;Max_cycle;Signal;HPM_P1;HPM_P2
2022/03/09 00:00:56;;;;;;;;;;;;;;;19.66;50.96;100143.56;2090067;28;20579;-53
2022/03/09 00:01:56;;;;;;;;;;;;;;;19.66;51.05;100142.69;2095935;28;20349;-53
2022/03/09 00:02:56;;;;;;;;;;;;;;;19.67;51.06;100148.06;2092724;28;20052;-52
2022/03/09 00:03:57;;;;;;;;;;;;;;;19.68;50.99;100147.03;2090069;28;20290;-53
2022/03/09 00:04:58;;;;;;;;;;;;;;;19.67;51.03;100148.06;2089456;28;19932;-51
2022/03/09 00:05:58;;;;;;;;;;;;;;;19.68;51.00;100143.44;2087432;28;20251;-53
2022/03/09 00:06:58;;;;;;;;;;;;;;;19.67;51.03;100137.13;2093268;28;19920;-49
2022/03/09 00:07:59;;;;;;;;;;;;;;;19.65;51.20;100141.84;2088602;28;20375;-48
2022/03/09 00:08:59;;;;;;;;;;;;;;;19.60;51.04;100138.72;2087937;28;19912;-48
2022/03/09 00:10:00;;;;;;;;;;;;;;;19.53;51.11;100140.34;2089242;28;19931;-50
2022/03/09 00:11:00;;;;;;;;;;;;;;;19.48;51.26;100139.94;2091940;28;20096;-47
2022/03/09 00:12:00;;;;;;;;;;;;;;;19.43;51.36;100139.53;2086489;28;19920;-48
2022/03/09 00:13:01;;;;;;;;;;;;;;;19.39;51.45;100146.28;2088305;28;20303;-48
2022/03/09 00:14:02;;;;;;;;;;;;;;;19.35;51.52;100140.25;2093442;28;20337;-48
2022/03/09 00:15:02;;;;;;;;;;;;;;;19.32;51.64;100137.81;2092465;28;19928;-51
2022/03/09 00:16:02;;;;;;;;;;;;;;;19.30;51.66;100142.56;2092378;28;20329;-48
2022/03/09 00:17:03;;;;;;;;;;;;;;;19.26;51.69;100135.72;2095543;28;19951;-50
2022/03/09 00:18:03;;;;;;;;;;;;;;;19.26;51.73;100142.03;2084811;28;19912;-48
2022/03/09 00:19:03;;;;;;;;;;;;;;;19.26;51.78;100136.56;2081610;28;20338;-51
2022/03/09 00:20:06;;;;;;;;;;;;;;;19.25;51.85;100142.16;2089356;28;19920;-49
2022/03/09 00:21:06;;;;;;;;;;;;;;;19.24;51.75;100144.03;2092616;28;19927;-49
2022/03/09 00:22:06;;;;;;;;;;;;;;;19.22;51.83;100140.59;2085965;28;19975;-50
2022/03/09 00:23:07;;;;;;;;;;;;;;;19.21;51.89;100144.34;2084665;28;19917;-48
2022/03/09 00:24:07;;;;;;;;;;;;;;;19.20;51.88;100136.28;2080535;28;19920;-48
2022/03/09 00:25:07;;;;;;;;;;;;;;;19.20;51.89;100142.63;2090962;28;19912;-50
2022/03/09 00:26:08;;;;;;;;;;;;;;;19.19;51.95;100143.63;2092898;28;20075;-48
2022/03/09 00:27:08;;;;;;;;;;;;;;;19.18;51.93;100139.19;2090788;28;19912;-48
2022/03/09 00:28:09;;;;;;;;;;;;;;;19.17;52.04;100142.91;2093874;28;19972;-51
2022/03/09 00:29:09;;;;;;;;;;;;;;;19.17;52.10;100142.06;2095108;28;20175;-49
2022/03/09 00:30:10;;;;;;;;;;;;;;;19.16;52.07;100143.94;2096025;28;20190;-51
2022/03/09 00:31:10;;;;;;;;;;;;;;;19.16;52.09;100135.75;2093624;28;19981;-51
2022/03/09 00:32:11;;;;;;;;;;;;;;;19.15;52.10;100142.19;2097025;28;20250;-48
2022/03/09 00:33:12;;;;;;;;;;;;;;;19.14;52.12;100135.03;2091308;28;20430;-50
2022/03/09 00:34:12;;;;;;;;;;;;;;;19.14;52.03;100137.75;2090217;28;20220;-48
2022/03/09 00:35:12;;;;;;;;;;;;;;;19.14;52.11;100143.22;2092717;28;19991;-48
2022/03/09 00:36:13;;;;;;;;;;;;;;;19.14;52.24;100139.63;2093457;28;19919;-48
2022/03/09 00:37:13;;;;;;;;;;;;;;;19.14;52.07;100139.63;2095899;28;19920;-48
2022/03/09 00:38:13;;;;;;;;;;;;;;;19.13;52.04;100144.22;2089283;28;19974;-49
2022/03/09 00:39:13;;;;;;;;;;;;;;;19.13;52.27;100140.63;2092968;28;20039;-48
2022/03/09 00:40:14;;;;;;;;;;;;;;;19.13;52.26;100140.63;2096262;28;20376;-50
2022/03/09 00:41:14;;;;;;;;;;;;;;;19.13;52.19;100146.94;2091387;28;19923;-51
2022/03/09 00:42:15;;;;;;;;;;;;;;;19.13;52.19;100144.22;2092314;28;20892;-48
2022/03/09 00:43:16;;;;;;;;;;;;;;;19.12;52.12;100145.25;2087824;28;20813;-49
2022/03/09 00:44:16;;;;;;;;;;;;;;;19.12;52.26;100142.50;2088845;28;20257;-51
2022/03/09 00:45:16;;;;;;;;;;;;;;;19.14;52.22;100142.38;2090511;28;19927;-49
2022/03/09 00:46:17;;;;;;;;;;;;;;;19.14;52.21;100142.38;2089285;28;19928;-48
2022/03/09 00:47:17;;;;;;;;;;;;;;;19.12;52.09;100139.78;2091942;28;20348;-50
2022/03/09 00:48:17;;;;;;;;;;;;;;;19.13;52.12;100136.03;2089118;28;20709;-48
2022/03/09 00:49:18;;;;;;;;;;;;;;;19.13;52.20;100141.50;2091934;28;19948;-50
2022/03/09 00:50:18;;;;;;;;;;;;;;;19.14;52.11;100145.09;2092492;28;19920;-48
2022/03/09 00:51:18;;;;;;;;;;;;;;;19.14;52.09;100143.22;2092869;28;20354;-48
2022/03/09 00:52:19;;;;;;;;;;;;;;;19.14;52.15;100140.50;2097201;28;20527;-51
2022/03/09 00:53:19;;;;;;;;;;;;;;;19.15;52.10;100144.06;2091423;28;19924;-48
2022/03/09 00:54:19;;;;;;;;;;;;;;;19.16;52.18;100143.09;2086239;28;21023;-51
2022/03/09 00:55:20;;;;;;;;;;;;;;;19.14;52.19;100143.22;2092357;28;20789;-49
2022/03/09 00:56:20;;;;;;;;;;;;;;;19.14;52.17;100145.97;2089526;28;20282;-48
2022/03/09 00:57:21;;;;;;;;;;;;;;;19.14;52.21;100153.31;2086267;28;20024;-48
2022/03/09 00:58:21;;;;;;;;;;;;;;;19.13;52.08;100152.41;2092774;28;19959;-47
2022/03/09 00:59:21;;;;;;;;;;;;;;;19.13;52.29;100146.94;2085773;28;19920;-48
2022/03/09 01:00:22;;;;;;;;;;;;;;;19.13;52.14;100141.50;2094708;28;20246;-50
2022/03/09 01:01:22;;;;;;;;;;;;;;;19.13;52.18;100140.63;2089642;28;19954;-50
2022/03/09 01:02:22;;;;;;;;;;;;;;;19.14;52.19;100147.84;2091082;28;20309;-48
2022/03/09 01:03:23;;;;;;;;;;;;;;;19.13;52.14;100146.94;2088625;28;19947;-51
2022/03/09 01:04:23;;;;;;;;;;;;;;;19.14;52.08;100145.97;2091030;28;19938;-49
2022/03/09 01:05:23;;;;;;;;;;;;;;;19.15;51.99;100144.06;2090902;28;19951;-50
2022/03/09 01:06:23;;;;;;;;;;;;;;;19.15;52.07;100144.06;2089556;28;20768;-50
2022/03/09 01:07:24;;;;;;;;;;;;;;;19.15;52.12;100144.94;2093390;28;20022;-52
2022/03/09 01:08:24;;;;;;;;;;;;;;;19.15;52.08;100144.94;2093707;28;20233;-48
2022/03/09 01:09:25;;;;;;;;;;;;;;;19.15;52.03;100144.94;2080365;28;19995;-49
2022/03/09 01:10:25;;;;;;;;;;;;;;;19.17;52.08;100151.13;2088921;28;19988;-49
2022/03/09 01:11:25;;;;;;;;;;;;;;;19.17;52.08;100148.38;2089690;28;19924;-50
2022/03/09 01:12:26;;;;;;;;;;;;;;;19.16;52.05;100143.94;2090460;28;20342;-50
2022/03/09 01:13:26;;;;;;;;;;;;;;;19.18;52.08;100147.41;2095092;28;20011;-49
2022/03/09 01:14:27;;;;;;;;;;;;;;;19.18;52.06;100146.50;2091980;28;20026;-51
2022/03/09 01:15:27;;;;;;;;;;;;;;;19.19;52.06;100149.09;2090602;28;20280;-48
2022/03/09 01:16:28;;;;;;;;;;;;;;;19.20;51.99;100147.22;2089311;28;19920;-49
2022/03/09 01:17:28;;;;;;;;;;;;;;;19.20;52.00;100145.34;2088070;28;19927;-48
2022/03/09 01:18:29;;;;;;;;;;;;;;;19.21;52.02;100149.81;2093051;28;20245;-50
2022/03/09 01:19:29;;;;;;;;;;;;;;;19.21;51.86;100149.81;2088608;28;20356;-49
2022/03/09 01:20:29;;;;;;;;;;;;;;;19.23;51.85;100149.66;2091238;28;19920;-48
2022/03/09 01:21:30;;;;;;;;;;;;;;;19.22;51.72;100146.06;2090183;28;20011;-52
2022/03/09 01:22:30;;;;;;;;;;;;;;;19.24;51.88;100154.13;2093116;28;20284;-49
2022/03/09 01:23:31;;;;;;;;;;;;;;;19.24;51.79;100154.97;2088984;28;20016;-49
2022/03/09 01:24:32;;;;;;;;;;;;;;;19.24;51.84;100154.13;2090836;28;19938;-49
2022/03/09 01:25:32;;;;;;;;;;;;;;;19.23;51.86;100161.47;2090639;28;20386;-50
2022/03/09 01:26:33;;;;;;;;;;;;;;;19.24;51.88;100154.97;2089972;28;19960;-49
2022/03/09 01:27:34;;;;;;;;;;;;;;;19.24;51.77;100148.66;2089764;28;19923;-50
2022/03/09 01:28:34;;;;;;;;;;;;;;;19.23;51.80;100153.28;2087595;28;19963;-50
2022/03/09 01:29:35;;;;;;;;;;;;;;;19.23;51.84;100153.28;2090826;28;19920;-48
2022/03/09 01:30:35;;;;;;;;;;;;;;;19.23;51.79;100152.38;2093507;28;19966;-50
2022/03/09 01:31:35;;;;;;;;;;;;;;;19.22;51.89;100148.78;2089850;28;19912;-48
2022/03/09 01:32:35;;;;;;;;;;;;;;;19.22;51.85;100157.00;2090550;28;20372;-49
2022/03/09 01:33:36;;;;;;;;;;;;;;;19.22;52.00;100146.06;2085202;28;19924;-49
2022/03/09 01:34:36;;;;;;;;;;;;;;;19.21;51.96;100149.81;2083335;28;19928;-48
2022/03/09 01:35:37;;;;;;;;;;;;;;;19.22;51.94;100157.00;2088771;28;19973;-49
2022/03/09 01:36:37;;;;;;;;;;;;;;;19.20;51.92;100153.53;2093931;28;19920;-48
2022/03/09 01:37:37;;;;;;;;;;;;;;;19.20;51.94;100153.53;2086636;28;19923;-49
2022/03/09 01:38:38;;;;;;;;;;;;;;;19.21;51.98;100148.97;2093958;28;20398;-49
2022/03/09 01:39:38;;;;;;;;;;;;;;;19.19;52.00;100150.97;2088047;28;19921;-49
2022/03/09 01:40:38;;;;;;;;;;;;;;;19.18;51.96;100144.66;2091877;28;20259;-49
2022/03/09 01:41:39;;;;;;;;;;;;;;;19.19;52.05;100146.38;2088703;28;20685;-49
2022/03/09 01:42:39;;;;;;;;;;;;;;;19.18;52.05;100147.41;2100146;28;19951;-51
2022/03/09 01:43:39;;;;;;;;;;;;;;;19.17;52.06;100148.38;2089985;28;19919;-49
2022/03/09 01:44:40;;;;;;;;;;;;;;;19.17;52.09;100142.06;2086353;28;19920;-52
2022/03/09 01:45:40;;;;;;;;;;;;;;;19.17;51.93;100148.38;2083334;28;20034;-50
2022/03/09 01:46:41;;;;;;;;;;;;;;;19.16;52.04;100140.34;2091586;28;20290;-51
2022/03/09 01:47:41;;;;;;;;;;;;;;;19.16;52.09;100138.47;2083405;28;19916;-49
2022/03/09 01:48:41;;;;;;;;;;;;;;;19.16;52.12;100140.34;2077018;28;19927;-51
2022/03/09 01:49:42;;;;;;;;;;;;;;;19.16;52.03;100134.88;2088300;28;20245;-48
2022/03/09 01:50:43;;;;;;;;;;;;;;;19.14;52.08;100137.75;2091621;28;19920;-50
2022/03/09 01:51:44;;;;;;;;;;;;;;;19.15;52.09;100139.47;2091495;28;19912;-48
2022/03/09 01:52:45;;;;;;;;;;;;;;;19.16;52.10;100143.09;2096464;28;19920;-48
2022/03/09 01:53:45;;;;;;;;;;;;;;;19.16;52.17;100141.22;2092428;28;19917;-50
2022/03/09 01:54:46;;;;;;;;;;;;;;;19.16;52.21;100141.22;2088318;28;20251;-49
2022/03/09 01:55:46;;;;;;;;;;;;;;;19.15;52.16;100142.19;2096235;28;19920;-51
2022/03/09 01:56:47;;;;;;;;;;;;;;;19.16;52.17;100140.34;2086448;28;20299;-48
2022/03/09 01:57:47;;;;;;;;;;;;;;;19.14;52.09;100135.03;2086441;28;19920;-48
2022/03/09 01:58:48;;;;;;;;;;;;;;;19.16;52.23;100140.34;2097614;28;19916;-48
2022/03/09 01:59:48;;;;;;;;;;;;;;;19.15;52.12;100139.47;2090391;28;19912;-50
2022/03/09 02:00:49;;;;;;;;;;;;;;;19.16;52.18;100145.81;2095135;28;19947;-49
2022/03/09 02:01:49;;;;;;;;;;;;;;;19.16;52.25;100135.75;2092215;28;20405;-49
2022/03/09 02:02:49;;;;;;;;;;;;;;;19.15;52.23;100139.47;2086772;28;19916;-50
2022/03/09 02:03:50;;;;;;;;;;;;;;;19.15;52.21;100139.47;2099371;28;20769;-51
2022/03/09 02:04:50;;;;;;;;;;;;;;;19.15;52.20;100139.47;2085550;28;20017;-51
2022/03/09 02:05:51;;;;;;;;;;;;;;;19.15;52.10;100142.19;2090790;28;20338;-49
2022/03/09 02:06:51;;;;;;;;;;;;;;;19.14;52.24;100140.50;2090156;28;19927;-52
2022/03/09 02:10:30;;;;;;;;;;;;;;;19.12;52.39;100139.78;2091993;28;19979;-52
2022/03/09 02:11:31;;;;;;;;;;;;;;;19.11;52.28;100132.59;2085552;28;19928;-50
2022/03/09 02:12:31;;;;;;;;;;;;;;;19.12;52.35;100139.78;2090031;28;19933;-49
2022/03/09 02:13:36;;;;;;;;;;;;;;;19.11;52.33;100139.91;2093344;28;20147;-50
2022/03/09 02:14:37;;;;;;;;;;;;;;;19.10;52.46;100138.19;2092656;28;19928;-49
2022/03/09 02:15:38;;;;;;;;;;;;;;;19.09;52.34;100136.50;2094023;28;20642;-50
2022/03/09 02:16:38;;;;;;;;;;;;;;;19.09;52.32;100140.09;2088590;28;19966;-52
2022/03/09 02:17:39;;;;;;;;;;;;;;;19.09;52.43;100136.50;2091999;28;19920;-50
2022/03/09 02:18:39;;;;;;;;;;;;;;;19.08;52.47;100137.50;2093503;28;19927;-51
2022/03/09 02:19:40;;;;;;;;;;;;;;;19.07;52.43;100136.63;2089353;28;19920;-49
2022/03/09 02:20:42;;;;;;;;;;;;;;;19.08;52.51;100137.50;2080738;28;20640;-48
2022/03/09 02:21:44;;;;;;;;;;;;;;;19.06;52.57;100134.91;2075176;28;19939;-50
2022/03/09 02:22:45;;;;;;;;;;;;;;;19.05;52.50;100131.31;2087825;28;20006;-48
2022/03/09 02:23:45;;;;;;;;;;;;;;;19.04;52.48;100129.59;2085660;28;19928;-50
2022/03/09 02:24:46;;;;;;;;;;;;;;;19.06;52.59;100130.31;2090067;28;19912;-49
2022/03/09 02:25:46;;;;;;;;;;;;;;;19.05;52.46;100127.72;2089117;28;20233;-50
2022/03/09 02:26:47;;;;;;;;;;;;;;;19.05;52.53;100127.72;2092082;28;19931;-50
2022/03/09 02:27:48;;;;;;;;;;;;;;;19.06;52.58;100124.00;2090011;28;19924;-51
2022/03/09 02:28:48;;;;;;;;;;;;;;;19.05;52.57;100128.56;2087957;28;20169;-49
2022/03/09 02:29:49;;;;;;;;;;;;;;;19.05;52.56;100127.72;2095672;28;20509;-50
2022/03/09 02:30:54;;;;;;;;;;;;;;;19.05;52.51;100125.84;2088576;28;19916;-50
2022/03/09 02:31:54;;;;;;;;;;;;;;;19.05;52.51;100127.72;2089676;28;20235;-49
2022/03/09 02:32:55;;;;;;;;;;;;;;;19.04;52.59;100129.59;2098528;28;19958;-51
2022/03/09 02:33:55;;;;;;;;;;;;;;;19.05;52.24;100127.72;2084038;28;20047;-49
2022/03/09 02:34:56;;;;;;;;;;;;;;;19.04;52.52;100123.28;2089887;28;19966;-48
2022/03/09 02:35:56;;;;;;;;;;;;;;;19.05;52.61;100124.97;2088488;28;19920;-49
2022/03/09 02:36:57;;;;;;;;;;;;;;;19.03;52.47;100124.28;2088601;28;19925;-51
2022/03/09 02:37:57;;;;;;;;;;;;;;;19.05;52.59;100122.25;2090833;28;19912;-50
2022/03/09 02:38:58;;;;;;;;;;;;;;;19.03;52.60;100118.81;2093717;28;19920;-50
2022/03/09 02:39:58;;;;;;;;;;;;;;;19.02;52.54;100122.56;2085925;28;19916;-51
2022/03/09 02:40:58;;;;;;;;;;;;;;;19.02;52.66;100117.94;2096305;28;19920;-49
2022/03/09 02:41:59;;;;;;;;;;;;;;;19.02;52.60;100119.81;2086129;28;19924;-52
2022/03/09 02:42:59;;;;;;;;;;;;;;;19.03;52.56;100121.53;2092968;28;19920;-52
2022/03/09 02:44:00;;;;;;;;;;;;;;;19.02;52.70;100122.56;2090001;28;19934;-50
2022/03/09 02:45:01;;;;;;;;;;;;;;;19.00;52.63;100119.13;2090925;28;20296;-50
2022/03/09 02:46:01;;;;;;;;;;;;;;;18.99;52.70;100121.00;2095306;28;19912;-51
2022/03/09 02:47:02;;;;;;;;;;;;;;;18.99;52.68;100117.41;2087582;28;20293;-49
2022/03/09 02:48:02;;;;;;;;;;;;;;;18.97;52.77;100120.28;2088807;28;19924;-50
2022/03/09 02:49:02;;;;;;;;;;;;;;;18.97;52.75;100114.81;2090519;28;19924;-48
2022/03/09 02:50:03;;;;;;;;;;;;;;;18.97;52.91;100113.97;2088344;28;19924;-48
2022/03/09 02:51:03;;;;;;;;;;;;;;;18.96;52.68;100123.13;2095136;28;20798;-48
2022/03/09 02:52:04;;;;;;;;;;;;;;;18.94;52.88;100109.66;2086730;28;19920;-49
2022/03/09 02:53:04;;;;;;;;;;;;;;;18.96;52.86;100112.22;2090340;28;19912;-48
2022/03/09 02:54:04;;;;;;;;;;;;;;;18.94;52.82;100109.66;2090555;28;20320;-49
2022/03/09 02:55:05;;;;;;;;;;;;;;;18.94;52.83;100109.66;2087120;28;19912;-48
2022/03/09 02:56:06;;;;;;;;;;;;;;;18.94;52.76;100108.78;2087657;28;19998;-51
2022/03/09 02:57:07;;;;;;;;;;;;;;;18.93;52.97;100109.78;2079478;28;20463;-49
2022/03/09 02:58:07;;;;;;;;;;;;;;;18.93;52.87;100112.53;2091245;28;19924;-48
2022/03/09 02:59:07;;;;;;;;;;;;;;;18.92;52.89;100108.06;2091850;28;20059;-50
2022/03/09 03:00:08;;;;;;;;;;;;;;;18.92;52.98;100116.28;2097608;28;19920;-52
2022/03/09 03:01:09;;;;;;;;;;;;;;;18.93;52.91;100109.78;2091132;28;19920;-50
2022/03/09 03:02:09;;;;;;;;;;;;;;;18.92;52.92;100105.34;2094164;28;19912;-50
2022/03/09 03:03:09;;;;;;;;;;;;;;;18.93;52.89;100112.53;2097068;28;19919;-50
2022/03/09 03:04:10;;;;;;;;;;;;;;;18.92;52.97;100116.28;2089133;28;19920;-52
2022/03/09 03:05:10;;;;;;;;;;;;;;;18.92;52.81;100111.66;2095817;28;20212;-52
2022/03/09 03:06:11;;;;;;;;;;;;;;;18.92;52.84;100106.19;2091606;28;19974;-50
2022/03/09 03:07:12;;;;;;;;;;;;;;;18.92;52.93;100121.72;2090963;28;19919;-50
2022/03/09 03:08:13;;;;;;;;;;;;;;;18.91;52.87;100109.06;2089715;28;19982;-51
2022/03/09 03:09:13;;;;;;;;;;;;;;;18.92;52.92;100108.06;2088674;28;19965;-53
2022/03/09 03:10:13;;;;;;;;;;;;;;;18.92;52.97;100110.81;2090719;28;20273;-51
2022/03/09 03:11:14;;;;;;;;;;;;;;;18.92;52.85;100121.72;2086587;28;20163;-49
2022/03/09 03:12:14;;;;;;;;;;;;;;;18.91;52.87;100114.53;2092795;28;19924;-49
2022/03/09 03:13:14;;;;;;;;;;;;;;;18.91;52.86;100109.06;2092072;28;19922;-50
2022/03/09 03:14:15;;;;;;;;;;;;;;;18.90;52.94;100107.34;2088950;28;19945;-49
2022/03/09 03:15:15;;;;;;;;;;;;;;;18.90;53.00;100107.34;2092570;28;20659;-51
2022/03/09 03:16:15;;;;;;;;;;;;;;;18.89;52.85;100105.63;2091830;28;19959;-50
2022/03/09 03:17:16;;;;;;;;;;;;;;;18.90;52.97;100115.56;2084766;28;20201;-52
2022/03/09 03:18:16;;;;;;;;;;;;;;;18.88;52.97;100112.09;2089900;28;19924;-49
2022/03/09 03:19:16;;;;;;;;;;;;;;;18.88;53.05;100112.09;2089136;28;19998;-50
2022/03/09 03:20:17;;;;;;;;;;;;;;;18.88;53.04;100103.91;2095418;28;19924;-52
2022/03/09 03:21:17;;;;;;;;;;;;;;;18.84;52.93;100104.22;2094273;28;19946;-48
2022/03/09 03:22:17;;;;;;;;;;;;;;;18.84;53.00;100103.34;2092223;28;19927;-49
2022/03/09 03:23:17;;;;;;;;;;;;;;;18.84;53.16;100109.69;2088876;28;20576;-48
2022/03/09 03:24:18;;;;;;;;;;;;;;;18.83;53.03;100116.13;2089928;28;20550;-48
2022/03/09 03:25:18;;;;;;;;;;;;;;;18.84;53.06;100106.09;2095387;28;20033;-48
2022/03/09 03:26:18;;;;;;;;;;;;;;;18.82;53.04;100105.38;2081884;28;19924;-50
2022/03/09 03:27:19;;;;;;;;;;;;;;;18.82;53.00;100108.97;2084054;28;20457;-50
2022/03/09 03:28:19;;;;;;;;;;;;;;;18.81;53.07;100109.97;2098692;28;19981;-50
2022/03/09 03:29:20;;;;;;;;;;;;;;;18.82;53.19;100111.69;2092448;28;20022;-50
2022/03/09 03:30:20;;;;;;;;;;;;;;;18.81;53.26;100109.97;2090477;28;19938;-49
2022/03/09 03:31:21;;;;;;;;;;;;;;;18.80;53.20;100108.25;2088083;28;20440;-49
2022/03/09 03:32:21;;;;;;;;;;;;;;;18.80;53.26;100102.78;2088174;28;19912;-49
2022/03/09 03:33:22;;;;;;;;;;;;;;;18.79;53.12;100106.53;2096200;28;20289;-50
2022/03/09 03:34:22;;;;;;;;;;;;;;;18.80;53.15;100105.50;2091128;28;19924;-49
2022/03/09 03:35:22;;;;;;;;;;;;;;;18.79;53.13;100106.53;2087430;28;20193;-49
2022/03/09 03:36:22;;;;;;;;;;;;;;;18.79;53.29;100100.19;2092338;28;20368;-49
2022/03/09 03:37:23;;;;;;;;;;;;;;;18.79;53.21;100100.19;2089894;28;20404;-49
2022/03/09 03:38:23;;;;;;;;;;;;;;;18.79;53.21;100102.91;2090420;28;19927;-49
2022/03/09 03:39:23;;;;;;;;;;;;;;;18.79;53.16;100103.81;2094531;28;20302;-51
2022/03/09 03:40:24;;;;;;;;;;;;;;;18.79;53.16;100098.34;2093298;28;19977;-49
2022/03/09 03:41:24;;;;;;;;;;;;;;;18.79;53.20;100103.81;2089247;28;19925;-48
2022/03/09 03:42:24;;;;;;;;;;;;;;;18.77;53.08;100103.09;2089125;28;20320;-49
2022/03/09 03:43:24;;;;;;;;;;;;;;;18.78;53.22;100110.25;2092791;28;20207;-51
2022/03/09 03:44:25;;;;;;;;;;;;;;;18.77;53.19;100103.09;2091938;28;20333;-49
2022/03/09 03:45:25;;;;;;;;;;;;;;;18.78;53.24;100102.06;2089685;28;20007;-48
2022/03/09 03:46:25;;;;;;;;;;;;;;;18.77;53.22;100105.81;2092791;28;19912;-48
2022/03/09 03:47:26;;;;;;;;;;;;;;;18.77;53.22;100103.09;2088928;28;19981;-48
2022/03/09 03:48:26;;;;;;;;;;;;;;;18.77;53.21;100103.09;2094286;28;19912;-48
2022/03/09 03:49:26;;;;;;;;;;;;;;;18.77;53.25;100108.53;2088245;28;19924;-48
2022/03/09 03:50:27;;;;;;;;;;;;;;;18.76;53.19;100105.94;2086562;28;20734;-48
2022/03/09 03:51:27;;;;;;;;;;;;;;;18.75;53.26;100107.78;2090946;28;19924;-48
2022/03/09 03:52:28;;;;;;;;;;;;;;;18.75;53.43;100096.88;2092363;28;19958;-48
2022/03/09 03:53:28;;;;;;;;;;;;;;;18.74;53.29;100097.91;2086255;28;20011;-52
2022/03/09 03:54:28;;;;;;;;;;;;;;;18.74;53.30;100099.72;2088733;28;20862;-49
2022/03/09 03:55:28;;;;;;;;;;;;;;;18.73;53.43;100100.75;2094490;28;20341;-51
2022/03/09 03:56:29;;;;;;;;;;;;;;;18.73;53.30;100106.22;2094563;28;20555;-52
2022/03/09 03:57:29;;;;;;;;;;;;;;;18.72;53.38;100099.06;2091775;28;19919;-48
2022/03/09 03:58:29;;;;;;;;;;;;;;;18.71;53.44;100098.16;2094085;28;20808;-50
2022/03/09 03:59:30;;;;;;;;;;;;;;;18.70;53.47;100101.91;2087685;28;19960;-50
2022/03/09 04:00:30;;;;;;;;;;;;;;;18.70;53.41;100101.06;2095296;28;19920;-51
2022/03/09 04:01:30;;;;;;;;;;;;;;;18.70;53.42;100099.19;2089965;28;19920;-50
2022/03/09 04:02:31;;;;;;;;;;;;;;;18.69;53.47;100105.66;2091835;28;19924;-52
2022/03/09 04:03:31;;;;;;;;;;;;;;;18.70;53.48;100099.19;2090365;28;19920;-51
2022/03/09 04:04:31;;;;;;;;;;;;;;;18.69;53.56;100099.31;2091345;28;19951;-52
2022/03/09 04:05:31;;;;;;;;;;;;;;;18.69;53.47;100096.59;2093023;28;19955;-50
2022/03/09 04:06:32;;;;;;;;;;;;;;;18.68;53.55;100097.63;2094063;28;20197;-51
2022/03/09 04:07:32;;;;;;;;;;;;;;;18.67;53.49;100099.47;2086551;28;19927;-52
2022/03/09 04:08:33;;;;;;;;;;;;;;;18.67;53.58;100098.59;2086148;28;19923;-51
2022/03/09 04:09:33;;;;;;;;;;;;;;;18.67;53.62;100104.94;2087693;28;19967;-51
2022/03/09 04:10:34;;;;;;;;;;;;;;;18.67;53.52;100096.75;2092300;28;19926;-50
2022/03/09 04:11:34;;;;;;;;;;;;;;;18.67;53.49;100104.94;2094713;28;20114;-51
2022/03/09 04:12:34;;;;;;;;;;;;;;;18.67;53.56;100099.47;2091250;28;19920;-50
2022/03/09 04:13:35;;;;;;;;;;;;;;;18.67;53.46;100101.31;2087267;28;19926;-50
2022/03/09 04:14:35;;;;;;;;;;;;;;;18.66;53.67;100094.16;2090675;28;19973;-49
2022/03/09 04:15:35;;;;;;;;;;;;;;;18.67;53.49;100096.75;2086135;28;19982;-49
2022/03/09 04:16:36;;;;;;;;;;;;;;;18.67;53.66;100101.31;2083014;28;19920;-49
2022/03/09 04:17:43;;;;;;;;;;;;;;;18.66;53.53;100100.47;2092697;28;19922;-50
2022/03/09 04:18:43;;;;;;;;;;;;;;;18.66;53.55;100103.22;2088728;28;19916;-51
2022/03/09 04:19:44;;;;;;;;;;;;;;;18.66;53.60;100095.00;2083854;28;20489;-49
2022/03/09 04:20:44;;;;;;;;;;;;;;;18.66;53.74;100095.00;2083642;28;20419;-53
2022/03/09 04:21:44;;;;;;;;;;;;;;;18.64;53.78;100094.28;2087678;28;19919;-51
2022/03/09 04:22:45;;;;;;;;;;;;;;;18.65;53.75;100098.78;2089303;28;19912;-50
2022/03/09 04:23:45;;;;;;;;;;;;;;;18.64;53.72;100099.75;2089079;28;19916;-53
2022/03/09 04:24:45;;;;;;;;;;;;;;;18.64;53.59;100097.91;2090730;28;19920;-49
2022/03/09 04:25:46;;;;;;;;;;;;;;;18.63;53.61;100100.78;2089013;28;19919;-51
2022/03/09 04:26:46;;;;;;;;;;;;;;;18.64;53.70;100107.94;2090141;28;19912;-49
2022/03/09 04:27:46;;;;;;;;;;;;;;;18.63;53.66;100106.25;2086282;28;20660;-49
2022/03/09 04:28:47;;;;;;;;;;;;;;;18.63;53.68;100103.50;2089828;28;19924;-52
2022/03/09 04:29:47;;;;;;;;;;;;;;;18.62;53.70;100104.53;2085977;28;19916;-50
2022/03/09 04:30:47;;;;;;;;;;;;;;;18.60;53.71;100101.94;2085949;28;20838;-51
2022/03/09 04:31:48;;;;;;;;;;;;;;;18.60;53.79;100101.94;2090430;28;19920;-50
2022/03/09 04:32:48;;;;;;;;;;;;;;;18.59;53.67;100104.81;2089571;28;20078;-49
2022/03/09 04:33:49;;;;;;;;;;;;;;;18.58;53.68;100098.47;2095444;28;19919;-50
2022/03/09 04:34:49;;;;;;;;;;;;;;;18.59;53.82;100093.88;2087128;28;20379;-49
2022/03/09 04:35:49;;;;;;;;;;;;;;;18.58;53.92;100101.22;2087377;28;20011;-51
2022/03/09 04:36:49;;;;;;;;;;;;;;;18.59;53.86;100099.34;2091485;28;19920;-51
2022/03/09 04:37:50;;;;;;;;;;;;;;;18.58;53.77;100100.34;2089491;28;19934;-49
2022/03/09 04:38:50;;;;;;;;;;;;;;;18.58;53.94;100094.91;2088310;28;20023;-53
2022/03/09 04:39:50;;;;;;;;;;;;;;;18.58;53.81;100097.63;2086207;28;19987;-51
2022/03/09 04:40:51;;;;;;;;;;;;;;;18.57;53.77;100098.63;2087721;28;19997;-52
2022/03/09 04:41:51;;;;;;;;;;;;;;;18.57;53.91;100109.53;2093897;28;19916;-53
2022/03/09 04:42:51;;;;;;;;;;;;;;;18.56;53.79;100105.94;2094112;28;20338;-51
2022/03/09 04:43:52;;;;;;;;;;;;;;;18.56;53.80;100110.56;2092823;28;20233;-52
2022/03/09 04:44:52;;;;;;;;;;;;;;;18.56;53.88;100105.94;2090110;28;20011;-47
2022/03/09 04:45:53;;;;;;;;;;;;;;;18.57;53.94;100101.34;2093093;28;19994;-49
2022/03/09 04:46:54;;;;;;;;;;;;;;;18.57;53.84;100104.06;2090295;28;20042;-49
2022/03/09 04:47:54;;;;;;;;;;;;;;;18.57;53.99;100112.25;2092496;28;19959;-47
2022/03/09 04:48:54;;;;;;;;;;;;;;;18.56;53.80;100105.09;2092254;28;19987;-50
2022/03/09 04:49:55;;;;;;;;;;;;;;;18.56;54.04;100102.38;2089559;28;19924;-50
2022/03/09 04:50:55;;;;;;;;;;;;;;;18.56;53.80;100100.50;2092334;28;19920;-47
2022/03/09 04:51:55;;;;;;;;;;;;;;;18.55;53.81;100104.25;2094661;28;19978;-50
2022/03/09 04:52:55;;;;;;;;;;;;;;;18.56;54.00;100107.81;2093896;28;19969;-48
2022/03/09 04:53:56;;;;;;;;;;;;;;;18.55;53.74;100103.38;2089000;28;19947;-48
2022/03/09 04:54:56;;;;;;;;;;;;;;;18.55;53.99;100103.38;2085555;28;19930;-47
2022/03/09 04:55:56;;;;;;;;;;;;;;;18.55;53.80;100104.25;2089956;28;19988;-48
2022/03/09 04:56:57;;;;;;;;;;;;;;;18.55;53.79;100108.84;2093510;28;20279;-47
2022/03/09 04:57:57;;;;;;;;;;;;;;;18.55;53.97;100104.25;2090442;28;20002;-48
2022/03/09 04:58:57;;;;;;;;;;;;;;;18.53;54.00;100102.66;2090200;28;20011;-48
2022/03/09 04:59:58;;;;;;;;;;;;;;;18.53;53.83;100106.25;2085363;28;20009;-47
2022/03/09 05:00:58;;;;;;;;;;;;;;;18.54;53.85;100101.66;2093371;28;19942;-49
2022/03/09 05:01:58;;;;;;;;;;;;;;;18.52;54.03;100110.00;2087849;28;20245;-50
2022/03/09 05:02:58;;;;;;;;;;;;;;;18.52;54.06;100114.56;2090718;28;19920;-50
2022/03/09 05:03:59;;;;;;;;;;;;;;;18.51;54.02;100101.94;2094027;28;20253;-48
2022/03/09 05:04:59;;;;;;;;;;;;;;;18.51;53.84;100112.88;2087228;28;19979;-51
2022/03/09 05:06:00;;;;;;;;;;;;;;;18.49;53.99;100109.41;2093346;28;19924;-47
2022/03/09 05:07:01;;;;;;;;;;;;;;;18.50;53.85;100111.16;2092601;28;19926;-50
2022/03/09 05:08:01;;;;;;;;;;;;;;;18.49;53.98;100110.28;2095435;28;20350;-48
2022/03/09 05:09:01;;;;;;;;;;;;;;;18.50;54.04;100116.63;2091380;28;19930;-49
2022/03/09 05:10:02;;;;;;;;;;;;;;;18.49;54.01;100114.88;2090841;28;20399;-49
2022/03/09 05:11:02;;;;;;;;;;;;;;;18.50;54.17;100113.88;2091041;28;19963;-50
2022/03/09 05:12:03;;;;;;;;;;;;;;;18.50;53.94;100116.63;2088064;28;20601;-49
2022/03/09 05:13:03;;;;;;;;;;;;;;;18.51;54.05;100116.44;2087270;28;19916;-49